createdAt,value
2023-03-01T01:34:50.477Z,144.95
2023-03-01T01:37:32.666Z,158.27
2023-03-01T01:43:22.388Z,133.73
2023-03-01T01:46:10.237Z,132.43
2023-03-01T01:48:57.510Z,135.15
2023-03-01T01:51:48.221Z,142.10
2023-03-01T01:57:20.350Z,128.85
2023-03-01T02:40:53.378Z,123.63
2023-03-01T02:43:44.298Z,116.50
2023-03-01T02:46:32.588Z,114.57
2023-03-01T03:14:26.081Z,109.75
2023-03-01T03:20:21.260Z,110.30
2023-03-01T03:32:23.786Z,149.38
2023-03-01T03:38:08.053Z,124.85
2023-03-01T03:43:55.238Z,132.23
2023-03-01T03:46:34.312Z,128.75
2023-03-01T03:49:17.703Z,126.82
2023-03-01T03:51:56.994Z,122.95
2023-03-01T03:54:35.746Z,139.65
2023-03-01T04:40:00.417Z,113.45
2023-03-01T05:03:56.693Z,114.63
2023-03-01T05:12:48.287Z,128.38
2023-03-01T05:15:26.981Z,112.75
2023-03-01T05:18:04.892Z,117.50
2023-03-01T05:20:46.577Z,125.13
2023-03-01T05:23:21.707Z,128.52
2023-03-01T05:25:59.408Z,103.45
2023-03-01T05:28:35.723Z,103.60
2023-03-01T05:31:15.984Z,111.75
2023-03-01T05:33:57.675Z,120.63
2023-03-01T05:36:39.001Z,111.13
2023-03-01T05:39:17.623Z,114.18
2023-03-01T05:41:57.483Z,102.00
2023-03-01T05:44:35.977Z,103.53
2023-03-01T05:50:11.865Z,113.53
2023-03-01T05:52:51.266Z,113.80
2023-03-01T05:55:29.107Z,109.57
2023-03-01T05:58:08.862Z,110.90
2023-03-01T06:00:45.524Z,98.80
2023-03-01T06:03:30.186Z,115.35
2023-03-01T06:06:11.427Z,108.40
2023-03-01T06:08:50.839Z,94.45
2023-03-01T06:11:29.116Z,117.93
2023-03-01T06:14:07.867Z,120.18
2023-03-01T06:16:44.601Z,119.65
2023-03-01T06:19:22.022Z,130.27
2023-03-01T06:22:00.319Z,132.82
2023-03-01T06:24:43.304Z,120.82
2023-03-01T06:30:20.734Z,120.53
2023-03-01T06:33:04.329Z,121.67
2023-03-01T06:35:42.373Z,113.50
2023-03-01T06:38:44.154Z,113.57
2023-03-01T06:41:32.533Z,104.57
2023-03-01T06:44:13.351Z,105.75
2023-03-01T06:46:50.174Z,98.07
2023-03-01T06:49:25.231Z,91.13
2023-03-01T06:52:04.212Z,101.25
2023-03-01T06:54:42.083Z,93.70
2023-03-01T06:57:17.036Z,92.75
2023-03-01T07:00:01.160Z,87.70
2023-03-01T07:02:36.541Z,87.90
2023-03-01T07:05:19.853Z,89.47
2023-03-01T07:08:02.317Z,85.90
2023-03-01T07:10:41.494Z,93.68
2023-03-01T07:13:18.824Z,91.80
2023-03-01T07:15:58.723Z,125.72
2023-03-01T07:18:39.076Z,120.70
2023-03-01T07:21:18.220Z,89.15
2023-03-01T07:23:52.708Z,94.95
2023-03-01T07:26:32.113Z,80.88
2023-03-01T07:29:12.327Z,82.05
2023-03-01T07:32:01.228Z,81.30
2023-03-01T07:34:36.473Z,80.20
2023-03-01T07:43:04.423Z,71.80
2023-03-01T07:45:53.134Z,71.90
2023-03-01T07:51:28.324Z,81.55
2023-03-01T07:54:14.477Z,80.25
2023-03-01T07:57:20.106Z,80.50
2023-03-01T08:00:04.646Z,76.60
2023-03-01T08:03:05.882Z,73.68
2023-03-01T08:05:47.005Z,75.18
2023-03-01T08:08:37.463Z,75.47
2023-03-01T08:11:16.331Z,67.53
2023-03-01T08:13:59.977Z,73.55
2023-03-01T08:16:51.790Z,74.97
2023-03-01T08:19:30.427Z,73.15
2023-03-01T08:22:08.736Z,90.72
2023-03-01T08:24:47.974Z,99.00
2023-03-01T08:27:28.692Z,89.70
2023-03-01T08:36:26.676Z,89.88
2023-03-01T08:39:09.180Z,82.55
2023-03-01T08:41:52.030Z,70.30
2023-03-01T08:44:29.583Z,65.57
2023-03-01T08:47:10.913Z,56.63
2023-03-01T08:49:46.919Z,58.42
2023-03-01T08:55:16.999Z,54.13
2023-03-01T08:58:00.139Z,49.63
2023-03-01T09:00:38.249Z,39.92
2023-03-01T09:03:20.595Z,30.05
2023-03-01T09:05:57.103Z,26.88
2023-03-01T09:08:33.002Z,31.10
2023-03-01T09:11:08.779Z,24.90
2023-03-01T09:16:42.094Z,30.57
2023-03-01T09:22:09.083Z,25.10
2023-03-01T09:24:45.602Z,26.38
2023-03-01T09:27:21.093Z,27.02
2023-03-01T09:30:01.438Z,26.27
2023-03-01T09:32:38.914Z,27.07
2023-03-01T09:35:13.461Z,26.30
2023-03-01T09:37:48.389Z,25.75
2023-03-01T09:40:26.244Z,22.48
2023-03-01T09:45:40.358Z,26.48
2023-03-01T09:48:18.053Z,23.63
2023-03-01T09:50:53.704Z,24.05
2023-03-01T09:56:06.835Z,24.30
2023-03-01T09:58:46.592Z,26.33
2023-03-01T10:01:36.025Z,23.63
2023-03-01T10:04:20.373Z,26.08
2023-03-01T10:07:00.822Z,23.63
2023-03-01T10:09:37.125Z,24.45
2023-03-01T10:12:15.929Z,28.08
2023-03-01T10:14:56.446Z,27.45
2023-03-01T10:17:38.693Z,23.83
2023-03-01T10:20:34.802Z,33.20
2023-03-01T10:23:09.743Z,28.33
2023-03-01T10:28:29.721Z,30.67
2023-03-01T10:31:10.162Z,30.05
2023-03-01T10:33:50.624Z,27.20
2023-03-01T10:36:27.236Z,26.85
2023-03-01T10:39:04.577Z,33.15
2023-03-01T10:41:41.955Z,32.05
2023-03-01T10:44:26.659Z,23.25
2023-03-01T10:47:05.356Z,27.92
2023-03-01T10:49:48.453Z,27.95
2023-03-01T10:52:27.249Z,21.42
2023-03-01T10:55:03.245Z,27.98
2023-03-01T11:00:26.309Z,21.20
2023-03-01T11:02:57.703Z,23.95
2023-03-01T11:05:39.203Z,23.65
2023-03-01T11:08:17.279Z,24.73
2023-03-01T11:10:55.571Z,23.67
2023-03-01T11:13:32.031Z,24.33
2023-03-01T11:16:12.406Z,25.70
2023-03-01T11:18:48.581Z,23.80
2023-03-01T11:21:29.828Z,21.60
2023-03-01T11:24:07.115Z,23.87
2023-03-01T11:26:48.428Z,23.60
2023-03-01T11:29:37.316Z,22.67
2023-03-01T11:32:21.253Z,23.77
2023-03-01T11:34:59.487Z,20.73
2023-03-01T11:37:42.566Z,22.65
2023-03-01T11:40:28.747Z,20.05
2023-03-01T11:43:11.502Z,17.90
2023-03-01T11:45:55.074Z,16.90
2023-03-01T11:48:52.024Z,16.05
2023-03-01T11:51:30.930Z,16.05
2023-03-01T11:54:14.740Z,15.05
2023-03-01T11:56:51.721Z,16.55
2023-03-01T11:59:38.876Z,22.30
2023-03-01T12:02:37.119Z,11.70
2023-03-01T12:05:18.166Z,12.50
2023-03-01T12:07:57.732Z,9.63
2023-03-01T12:10:38.505Z,15.00
2023-03-01T12:13:28.291Z,12.80
2023-03-01T12:16:13.795Z,10.77
2023-03-01T12:19:10.329Z,14.10
2023-03-01T12:21:52.154Z,14.05
2023-03-01T12:24:53.135Z,16.50
2023-03-01T12:27:44.546Z,16.70
2023-03-01T12:30:17.765Z,16.40
2023-03-01T12:33:02.003Z,20.05
2023-03-01T12:36:11.854Z,20.88
2023-03-01T12:38:56.993Z,18.58
2023-03-01T12:41:35.117Z,19.98
2023-03-01T12:44:22.853Z,18.00
2023-03-01T12:47:10.605Z,14.93
2023-03-01T12:49:56.402Z,16.30
2023-03-01T12:52:42.217Z,12.43
2023-03-01T12:55:24.475Z,16.02
2023-03-01T12:58:11.354Z,14.82
2023-03-01T13:01:16.609Z,12.35
2023-03-01T13:04:05.086Z,15.30
2023-03-01T13:06:44.072Z,14.30
2023-03-01T13:09:30.247Z,18.33
2023-03-01T13:14:58.336Z,16.85
2023-03-01T13:17:48.273Z,13.98
2023-03-01T13:20:19.727Z,13.55
2023-03-01T13:23:07.170Z,17.38
2023-03-01T13:26:06.885Z,20.48
2023-03-01T13:29:03.726Z,21.48
2023-03-01T13:32:06.475Z,22.58
2023-03-01T13:34:55.308Z,17.45
2023-03-01T13:37:43.560Z,19.50
2023-03-01T13:40:56.329Z,13.32
2023-03-01T13:43:35.258Z,16.85
2023-03-01T13:46:16.125Z,16.75
2023-03-01T13:48:54.945Z,22.92
2023-03-01T13:51:37.841Z,19.05
2023-03-01T13:54:20.589Z,20.23
2023-03-01T13:57:01.692Z,22.63
2023-03-01T13:59:36.863Z,17.67
2023-03-01T14:02:21.059Z,17.70
2023-03-01T14:05:01.960Z,17.88
2023-03-01T14:07:45.171Z,19.48
2023-03-01T14:10:23.004Z,18.98
2023-03-01T14:13:11.437Z,20.70
2023-03-01T14:15:58.595Z,17.70
2023-03-01T14:18:38.203Z,18.70
2023-03-01T14:21:12.136Z,20.30
2023-03-01T14:23:56.200Z,19.33
2023-03-01T14:26:36.449Z,18.73
2023-03-01T14:29:29.683Z,20.52
2023-03-01T14:32:05.279Z,21.98
2023-03-01T14:34:41.785Z,19.55
2023-03-01T14:37:26.438Z,17.20
2023-03-01T14:40:26.504Z,20.58
2023-03-01T14:43:06.304Z,17.95
2023-03-01T14:45:41.263Z,24.35
2023-03-01T14:48:23.635Z,20.88
2023-03-01T14:51:01.627Z,15.68
2023-03-01T14:53:50.997Z,22.08
2023-03-01T14:56:33.269Z,21.98
2023-03-01T14:59:09.278Z,20.92
2023-03-01T15:01:47.164Z,20.40
2023-03-01T15:04:25.219Z,22.70
2023-03-01T15:07:06.464Z,17.95
2023-03-01T15:09:42.667Z,17.55
2023-03-01T15:15:37.580Z,18.58
2023-03-01T15:18:20.530Z,18.70
2023-03-01T15:20:56.846Z,18.38
2023-03-01T15:23:36.142Z,15.63
2023-03-01T15:26:26.053Z,18.98
2023-03-01T15:29:08.066Z,17.37
2023-03-01T15:31:53.556Z,18.77
2023-03-01T15:34:33.613Z,18.90
2023-03-01T15:37:45.630Z,20.27
2023-03-01T15:40:26.222Z,26.90
2023-03-01T15:43:07.422Z,21.65
2023-03-01T15:45:47.128Z,23.08
2023-03-01T15:48:36.096Z,24.05
2023-03-01T15:51:16.067Z,24.70
2023-03-01T15:53:59.641Z,27.58
2023-03-01T15:56:39.983Z,26.08
2023-03-01T15:59:21.289Z,29.20
2023-03-01T16:02:15.862Z,27.23
2023-03-01T16:04:57.828Z,25.85
2023-03-01T16:07:37.642Z,24.40
2023-03-01T16:10:34.555Z,30.52
2023-03-01T16:13:13.159Z,21.58
2023-03-01T16:15:54.666Z,23.53
2023-03-01T16:18:40.762Z,27.60
2023-03-01T16:21:22.454Z,28.50
2023-03-01T16:23:59.010Z,27.17
2023-03-01T16:29:35.809Z,33.30
2023-03-01T16:32:19.919Z,28.00
2023-03-01T16:35:00.722Z,31.50
2023-03-01T16:37:41.164Z,40.72
2023-03-01T16:40:43.461Z,45.55
2023-03-01T16:43:20.877Z,48.95
2023-03-01T16:45:56.136Z,48.05
2023-03-01T16:48:31.005Z,57.15
2023-03-01T16:51:09.737Z,76.07
2023-03-01T16:53:47.478Z,73.53
2023-03-01T16:56:24.425Z,65.07
2023-03-01T16:59:00.893Z,60.43
2023-03-01T17:01:39.656Z,48.63
2023-03-01T17:04:17.756Z,56.80
2023-03-01T17:06:57.872Z,51.90
2023-03-01T17:09:38.463Z,62.30
2023-03-01T17:12:14.828Z,74.57
2023-03-01T17:15:07.915Z,71.05
2023-03-01T17:17:44.846Z,65.45
2023-03-01T17:20:23.161Z,82.80
2023-03-01T17:23:02.682Z,77.55
2023-03-01T17:25:37.822Z,78.00
2023-03-01T17:28:15.786Z,74.85
2023-03-01T17:30:51.538Z,78.20
2023-03-01T17:33:25.911Z,71.10
2023-03-01T17:36:00.891Z,96.20
2023-03-01T17:38:39.669Z,88.65
2023-03-01T17:41:16.409Z,83.57
2023-03-01T17:43:51.611Z,76.65
2023-03-01T17:46:25.137Z,87.00
2023-03-01T17:49:00.947Z,83.30
2023-03-01T17:51:37.504Z,91.80
2023-03-01T17:54:17.069Z,100.57
2023-03-01T17:57:01.653Z,99.87
2023-03-01T18:02:19.504Z,109.88
2023-03-01T18:04:53.970Z,125.25
2023-03-01T18:07:40.284Z,129.30
2023-03-01T18:13:00.765Z,152.02
2023-03-01T18:15:36.882Z,181.60
2023-03-01T18:18:24.210Z,160.48
2023-03-01T18:33:13.581Z,152.27
2023-03-01T18:35:52.472Z,127.47
2023-03-01T18:38:41.553Z,131.43
2023-03-01T18:41:17.785Z,122.40
2023-03-01T18:44:00.551Z,128.97
2023-03-01T18:46:39.397Z,123.90
2023-03-01T18:49:21.646Z,113.75
2023-03-01T18:51:59.710Z,106.47
2023-03-01T18:54:40.251Z,104.97
2023-03-01T18:57:17.152Z,105.57
2023-03-01T18:59:55.634Z,105.57
2023-03-01T19:02:35.494Z,101.77
2023-03-01T19:05:17.960Z,97.05
2023-03-01T19:08:00.647Z,87.97
2023-03-01T19:10:40.536Z,101.93
2023-03-01T19:13:19.249Z,99.03
2023-03-01T19:15:56.392Z,102.13
2023-03-01T19:18:36.163Z,94.00
2023-03-01T19:24:07.216Z,93.50
2023-03-01T19:26:45.100Z,93.40
2023-03-01T19:29:27.488Z,94.72
2023-03-01T19:32:06.923Z,82.07
2023-03-01T19:37:43.892Z,78.80
2023-03-01T19:40:26.395Z,79.30
2023-03-01T19:46:07.868Z,71.45
2023-03-01T19:48:45.496Z,83.82
2023-03-01T19:51:22.105Z,97.15
2023-03-01T19:53:58.318Z,89.75
2023-03-01T20:02:05.820Z,78.72
2023-03-01T20:07:45.631Z,92.43
2023-03-01T20:10:24.495Z,90.95
2023-03-01T20:13:13.292Z,92.05
2023-03-01T20:15:53.641Z,90.32
2023-03-01T20:18:29.900Z,95.22
2023-03-01T20:21:14.652Z,94.38
2023-03-01T20:24:01.365Z,97.65
2023-03-01T20:26:42.765Z,76.30
2023-03-01T20:29:25.225Z,93.90
2023-03-01T20:32:05.562Z,100.22
2023-03-01T20:34:45.922Z,85.78
2023-03-01T20:37:22.789Z,82.30
2023-03-01T20:40:02.072Z,89.73
2023-03-01T20:42:43.619Z,92.53
2023-03-01T20:45:22.984Z,93.80
2023-03-01T20:48:08.899Z,98.57
2023-03-01T20:50:49.477Z,103.30
2023-03-01T20:53:27.306Z,100.43
2023-03-01T20:56:09.706Z,104.30
2023-03-01T20:58:45.120Z,113.93
2023-03-01T21:01:25.056Z,125.60
2023-03-01T21:04:01.293Z,119.90
2023-03-01T21:06:43.165Z,94.35
2023-03-01T21:09:19.042Z,98.25
2023-03-01T21:11:55.135Z,111.32
2023-03-01T21:14:42.907Z,121.40
2023-03-01T21:17:25.361Z,137.05
2023-03-01T21:20:02.288Z,127.65
2023-03-01T21:22:46.815Z,122.50
2023-03-01T21:25:25.620Z,123.80
2023-03-01T21:28:06.320Z,133.98
2023-03-01T21:30:41.359Z,175.13
2023-03-01T21:33:17.398Z,149.68
2023-03-01T21:38:40.204Z,141.18
2023-03-01T21:41:21.453Z,133.23
2023-03-01T21:44:01.051Z,164.32
2023-03-01T21:46:39.965Z,158.80
2023-03-01T21:49:19.308Z,150.93
2023-03-01T21:52:00.037Z,133.60
2023-03-01T21:54:44.100Z,155.33
2023-03-01T21:57:24.610Z,161.77
2023-03-01T22:00:04.859Z,170.38
2023-03-01T22:02:47.636Z,180.32
2023-03-01T22:05:23.722Z,168.03
2023-03-01T22:08:02.559Z,161.25
2023-03-01T22:10:49.843Z,160.48
2023-03-01T22:13:32.833Z,157.40
2023-03-01T22:16:11.705Z,127.53
2023-03-01T22:18:47.801Z,144.68
2023-03-01T22:21:24.913Z,136.25
2023-03-01T22:24:01.261Z,131.93
2023-03-01T22:26:42.198Z,137.13
2023-03-01T22:29:17.818Z,123.70
2023-03-01T22:31:56.924Z,139.20
2023-03-01T22:34:34.779Z,135.98
2023-03-01T22:37:14.309Z,152.87
2023-03-01T22:39:49.472Z,140.73
2023-03-01T22:42:29.502Z,144.98
2023-03-01T22:45:04.331Z,115.47
2023-03-01T22:47:40.965Z,147.05
2023-03-01T22:50:21.018Z,154.80
2023-03-01T22:52:59.482Z,169.38
2023-03-01T22:55:37.300Z,161.70
2023-03-01T22:58:17.827Z,154.32
2023-03-01T23:00:52.898Z,159.70
2023-03-01T23:03:28.625Z,170.40
2023-03-01T23:06:05.692Z,179.60
2023-03-01T23:08:48.164Z,194.93
2023-03-01T23:11:22.924Z,191.23
2023-03-01T23:14:01.341Z,170.10
2023-03-01T23:16:37.041Z,154.00
2023-03-01T23:19:12.881Z,143.57
2023-03-01T23:21:50.719Z,138.50
2023-03-01T23:24:32.236Z,158.43
2023-03-01T23:27:09.868Z,142.77
2023-03-01T23:29:49.194Z,156.20
2023-03-01T23:32:24.777Z,136.80
2023-03-01T23:37:37.134Z,146.25
2023-03-01T23:40:17.262Z,135.80
2023-03-01T23:42:52.465Z,160.05
2023-03-01T23:45:35.163Z,145.88
2023-03-01T23:48:15.571Z,140.68
2023-03-01T23:50:53.476Z,153.88
2023-03-01T23:53:31.700Z,147.77
2023-03-01T23:56:11.300Z,147.38
2023-03-01T23:58:51.345Z,144.10
